Time;durP1;ratioP1;P1;durP2;ratioP2;P2;SDS_P1;SDS_P2;PMS_P1;PMS_P2;Temp;Humidity;BMP_temperature;BMP_pressure;BME280_temperature;BME280_humidity;BME280_pressure;Samples;Min_cycle;Max_cycle;Signal;HPM_P1;HPM_P2
2023/05/23 00:00:17;;;;;;;16.80;12.17;;;19.30;99.90;;;;;;5118243;28;20796;-64
2023/05/23 00:02:45;;;;;;;17.35;11.93;;;19.10;99.90;;;;;;5118139;28;20912;-65
2023/05/23 00:05:14;;;;;;;16.23;11.50;;;19.20;99.90;;;;;;5118703;28;21007;-64
2023/05/23 00:07:41;;;;;;;19.95;13.75;;;19.10;99.90;;;;;;5117627;28;20800;-65
2023/05/23 00:10:09;;;;;;;20.42;13.93;;;19.10;99.90;;;;;;5117783;28;20424;-65
2023/05/23 00:12:38;;;;;;;21.77;15.77;;;19.00;99.90;;;;;;5117382;28;20416;-65
2023/05/23 00:15:07;;;;;;;21.20;14.80;;;18.90;99.90;;;;;;5118283;28;20420;-64
2023/05/23 00:17:35;;;;;;;18.67;14.35;;;18.80;99.90;;;;;;5118152;28;20428;-64
2023/05/23 00:20:03;;;;;;;20.83;15.63;;;18.80;99.90;;;;;;5117681;28;20434;-64
2023/05/23 00:22:30;;;;;;;20.17;14.75;;;18.80;99.90;;;;;;5118188;28;20420;-65
2023/05/23 00:25:00;;;;;;;21.13;15.50;;;18.70;99.90;;;;;;5118196;28;20453;-64
2023/05/23 00:27:27;;;;;;;23.30;15.75;;;18.80;99.90;;;;;;5118263;28;20833;-64
2023/05/23 00:29:56;;;;;;;21.97;15.97;;;18.90;99.90;;;;;;5117466;28;20428;-63
2023/05/23 00:32:23;;;;;;;21.30;16.10;;;18.90;99.90;;;;;;5117220;28;20420;-64
2023/05/23 00:34:52;;;;;;;26.13;17.10;;;19.00;99.90;;;;;;5117754;28;20488;-64
2023/05/23 00:37:21;;;;;;;23.10;17.30;;;19.00;99.90;;;;;;5118009;28;20463;-63
2023/05/23 00:39:48;;;;;;;23.77;17.30;;;18.90;99.90;;;;;;5117932;28;20435;-63
2023/05/23 00:42:15;;;;;;;27.50;17.42;;;18.80;99.90;;;;;;5117686;28;20420;-64
2023/05/23 00:44:42;;;;;;;23.77;17.03;;;18.80;99.90;;;;;;5117305;28;20527;-64
2023/05/23 00:47:12;;;;;;;27.25;18.42;;;19.00;99.90;;;;;;5117616;28;20420;-63
2023/05/23 00:49:40;;;;;;;25.33;18.90;;;19.00;99.90;;;;;;5117918;28;20427;-64
2023/05/23 00:52:07;;;;;;;26.50;17.67;;;18.90;99.90;;;;;;5117521;28;20416;-64
2023/05/23 00:54:36;;;;;;;27.27;19.30;;;19.00;99.90;;;;;;5116994;28;20535;-64
2023/05/23 00:57:03;;;;;;;26.52;17.75;;;19.00;99.90;;;;;;5117478;28;20852;-63
2023/05/23 00:59:31;;;;;;;28.50;18.58;;;18.90;99.90;;;;;;5117554;28;20432;-63
2023/05/23 01:02:00;;;;;;;27.30;17.40;;;18.90;99.90;;;;;;5117705;28;20416;-63
2023/05/23 01:04:32;;;;;;;29.50;19.90;;;19.00;99.90;;;;;;5117639;28;20430;-63
2023/05/23 01:07:00;;;;;;;27.52;20.27;;;19.10;99.90;;;;;;5116971;28;20463;-64
2023/05/23 01:09:29;;;;;;;28.77;18.20;;;19.10;99.90;;;;;;5117472;28;20921;-64
2023/05/23 01:12:11;;;;;;;26.73;19.92;;;19.10;99.90;;;;;;5116805;28;20416;-64
2023/05/23 01:14:46;;;;;;;30.80;20.50;;;19.10;99.90;;;;;;5117184;28;20835;-64
2023/05/23 01:17:19;;;;;;;31.90;21.10;;;18.90;99.90;;;;;;5117095;28;20480;-63
2023/05/23 01:20:01;;;;;;;25.20;17.58;;;18.90;99.90;;;;;;5116996;28;20522;-64
2023/05/23 01:22:41;;;;;;;29.58;20.45;;;19.00;99.90;;;;;;5116720;28;20424;-64
2023/05/23 01:25:17;;;;;;;28.42;20.67;;;19.00;99.90;;;;;;5117139;28;20426;-63
2023/05/23 01:27:55;;;;;;;32.15;20.25;;;19.00;99.90;;;;;;5116377;28;20420;-64
2023/05/23 01:30:25;;;;;;;30.52;21.20;;;19.10;99.90;;;;;;5116430;28;20870;-65
2023/05/23 01:32:55;;;;;;;30.38;21.58;;;19.00;99.90;;;;;;5116509;28;20420;-62
2023/05/23 01:35:26;;;;;;;29.05;19.63;;;18.90;99.90;;;;;;5116932;28;20489;-64
2023/05/23 01:37:53;;;;;;;33.63;23.27;;;18.90;99.90;;;;;;5116812;28;20519;-63
2023/05/23 01:40:20;;;;;;;30.92;21.52;;;18.80;99.90;;;;;;5116982;28;20412;-65
2023/05/23 01:42:48;;;;;;;28.67;20.77;;;18.80;99.90;;;;;;5116695;28;20762;-65
2023/05/23 01:45:17;;;;;;;28.77;20.30;;;18.80;99.90;;;;;;5116648;28;20453;-65
2023/05/23 01:47:46;;;;;;;31.23;21.73;;;18.90;99.90;;;;;;5116512;28;20832;-64
2023/05/23 01:50:14;;;;;;;31.20;22.08;;;18.80;99.90;;;;;;5115488;28;20862;-64
2023/05/23 01:52:41;;;;;;;29.80;22.40;;;18.90;99.90;;;;;;5115112;28;20416;-64
2023/05/23 01:55:10;;;;;;;34.05;22.35;;;18.80;99.90;;;;;;5116463;28;20847;-63
2023/05/23 01:57:38;;;;;;;30.83;20.92;;;18.80;99.90;;;;;;5116241;28;20523;-63
2023/05/23 02:00:09;;;;;;;31.10;22.35;;;18.70;99.90;;;;;;5115380;28;20420;-63
2023/05/23 02:02:38;;;;;;;31.63;22.50;;;18.70;99.90;;;;;;5114296;28;20451;-64
2023/05/23 02:05:06;;;;;;;33.20;23.20;;;18.70;99.90;;;;;;5114585;28;20431;-63
2023/05/23 02:07:33;;;;;;;34.00;23.73;;;18.60;99.90;;;;;;5115088;28;20419;-65
2023/05/23 02:10:00;;;;;;;30.75;22.85;;;18.60;99.90;;;;;;5114924;28;20474;-62
2023/05/23 02:12:27;;;;;;;32.90;23.90;;;18.60;99.90;;;;;;5114978;28;20536;-64
2023/05/23 02:14:54;;;;;;;32.13;23.90;;;18.60;99.90;;;;;;5115299;28;20437;-65
2023/05/23 02:17:23;;;;;;;36.00;24.92;;;18.50;99.90;;;;;;5114883;28;20465;-64
2023/05/23 02:19:51;;;;;;;34.60;25.90;;;18.50;99.90;;;;;;5116467;28;20947;-63
2023/05/23 02:22:18;;;;;;;36.22;25.42;;;18.40;99.90;;;;;;5115686;28;20420;-64
2023/05/23 02:24:45;;;;;;;36.33;26.23;;;18.50;99.90;;;;;;5114738;28;20437;-63
2023/05/23 02:27:12;;;;;;;33.80;23.52;;;18.40;99.90;;;;;;5115524;28;20490;-64
2023/05/23 02:29:39;;;;;;;41.67;28.52;;;18.40;99.90;;;;;;5115856;28;20840;-64
2023/05/23 02:32:06;;;;;;;36.58;24.95;;;18.30;99.90;;;;;;5115407;28;20915;-64
2023/05/23 02:34:33;;;;;;;37.28;25.23;;;18.30;99.90;;;;;;5115147;28;20427;-64
2023/05/23 02:37:02;;;;;;;39.63;26.87;;;18.40;99.90;;;;;;5115134;28;20416;-64
2023/05/23 02:39:29;;;;;;;34.17;24.77;;;18.40;99.90;;;;;;5114913;28;20781;-64
2023/05/23 02:41:56;;;;;;;39.88;24.88;;;18.50;99.90;;;;;;5114631;28;20835;-64
2023/05/23 02:44:23;;;;;;;34.50;25.13;;;18.40;99.90;;;;;;5115474;28;20446;-63
2023/05/23 02:46:49;;;;;;;36.53;25.65;;;18.50;99.90;;;;;;5115423;28;20415;-64
2023/05/23 02:49:16;;;;;;;36.93;24.47;;;18.60;99.90;;;;;;5115508;28;20481;-64
2023/05/23 02:51:43;;;;;;;33.80;24.70;;;18.60;99.90;;;;;;5115076;28;20465;-64
2023/05/23 02:54:12;;;;;;;35.95;27.45;;;18.60;99.90;;;;;;5114946;28;20432;-64
2023/05/23 02:56:39;;;;;;;42.55;27.00;;;18.50;99.90;;;;;;5114719;28;20447;-64
2023/05/23 02:59:06;;;;;;;31.90;22.98;;;18.50;99.90;;;;;;5115432;28;20443;-63
2023/05/23 03:01:33;;;;;;;35.60;27.15;;;18.50;99.90;;;;;;5114983;28;20428;-63
2023/05/23 03:04:00;;;;;;;34.45;25.75;;;18.40;99.90;;;;;;5115003;28;20420;-63
2023/05/23 03:06:27;;;;;;;34.05;25.13;;;18.40;99.90;;;;;;5115604;28;20416;-64
2023/05/23 03:08:55;;;;;;;30.40;23.60;;;18.40;99.90;;;;;;5096840;28;20427;-64
2023/05/23 03:11:24;;;;;;;34.50;25.27;;;18.50;99.90;;;;;;5114549;28;20426;-64
2023/05/23 03:13:51;;;;;;;33.55;24.10;;;18.50;99.90;;;;;;5114257;28;20420;-64
2023/05/23 03:16:18;;;;;;;34.13;24.45;;;18.50;99.90;;;;;;5112806;28;20420;-64
2023/05/23 03:18:45;;;;;;;31.95;24.23;;;18.50;99.90;;;;;;5111994;28;20765;-63
2023/05/23 03:21:12;;;;;;;33.30;23.80;;;18.50;99.90;;;;;;5113024;28;20843;-63
2023/05/23 03:23:39;;;;;;;32.80;23.30;;;18.50;99.90;;;;;;5115978;28;20648;-61
2023/05/23 03:26:06;;;;;;;31.92;24.00;;;18.50;99.90;;;;;;5116440;28;20416;-61
2023/05/23 03:28:35;;;;;;;29.63;22.83;;;18.50;99.90;;;;;;5114134;28;20752;-61
2023/05/23 03:31:02;;;;;;;37.05;25.45;;;18.50;99.90;;;;;;5113217;28;20422;-61
2023/05/23 03:33:29;;;;;;;31.30;24.50;;;18.30;99.90;;;;;;5115646;28;20430;-62
2023/05/23 03:35:56;;;;;;;33.33;23.07;;;18.20;99.90;;;;;;5115388;28;20477;-61
2023/05/23 03:38:23;;;;;;;29.17;22.77;;;18.20;99.90;;;;;;5116384;28;20518;-62
2023/05/23 03:40:50;;;;;;;27.40;21.95;;;18.30;99.90;;;;;;5116373;28;20836;-62
2023/05/23 03:43:17;;;;;;;28.55;22.27;;;18.40;99.90;;;;;;5117103;28;20912;-63
2023/05/23 03:45:46;;;;;;;26.92;20.90;;;18.30;99.90;;;;;;5118795;28;20416;-62
2023/05/23 03:48:13;;;;;;;29.10;22.90;;;18.40;99.90;;;;;;5118301;28;20416;-62
2023/05/23 03:50:40;;;;;;;29.10;21.70;;;18.40;99.90;;;;;;5118402;28;20426;-64
2023/05/23 03:53:07;;;;;;;27.40;21.00;;;18.40;99.90;;;;;;5118396;28;20416;-62
2023/05/23 03:55:34;;;;;;;28.20;21.38;;;18.40;99.90;;;;;;5118763;28;20423;-62
2023/05/23 03:58:01;;;;;;;28.05;21.25;;;18.40;99.90;;;;;;5118474;28;20417;-62
2023/05/23 04:00:28;;;;;;;27.33;20.90;;;18.50;99.90;;;;;;5117311;28;20427;-62
2023/05/23 04:02:56;;;;;;;26.88;21.13;;;18.40;99.90;;;;;;5116101;28;20423;-61
2023/05/23 04:05:23;;;;;;;29.10;22.73;;;18.40;99.90;;;;;;5116511;28;20932;-62
2023/05/23 04:07:51;;;;;;;29.20;21.33;;;18.30;99.90;;;;;;5115080;28;20416;-62
2023/05/23 04:10:18;;;;;;;27.05;21.60;;;18.30;99.90;;;;;;5116722;28;20419;-61
2023/05/23 04:12:46;;;;;;;30.42;23.10;;;18.40;99.90;;;;;;5116618;28;20408;-61
2023/05/23 04:15:13;;;;;;;26.25;20.45;;;18.30;99.90;;;;;;5117200;28;20431;-61
2023/05/23 04:17:40;;;;;;;29.55;23.15;;;18.40;99.90;;;;;;5115665;28;20509;-61
2023/05/23 04:20:11;;;;;;;29.97;20.37;;;18.30;99.90;;;;;;5115031;28;20432;-61
2023/05/23 04:22:38;;;;;;;28.45;20.67;;;18.30;99.90;;;;;;5115812;28;20683;-60
2023/05/23 04:25:06;;;;;;;26.55;20.48;;;18.20;99.90;;;;;;5116338;28;20424;-61
2023/05/23 04:27:33;;;;;;;29.50;21.53;;;18.10;99.90;;;;;;5115165;28;20827;-61
2023/05/23 04:30:00;;;;;;;26.17;19.92;;;18.10;99.90;;;;;;5116133;28;20426;-61
2023/05/23 04:32:27;;;;;;;27.48;20.95;;;18.20;99.90;;;;;;5115806;28;20519;-61
2023/05/23 04:34:55;;;;;;;28.63;20.05;;;18.20;99.90;;;;;;5115973;28;20428;-62
2023/05/23 04:37:24;;;;;;;26.58;20.80;;;18.30;99.90;;;;;;5116224;28;20420;-63
2023/05/23 04:39:52;;;;;;;27.83;21.17;;;18.20;99.90;;;;;;5117027;28;20432;-62
2023/05/23 04:42:23;;;;;;;28.50;21.00;;;18.20;99.90;;;;;;5114396;28;20416;-63
2023/05/23 04:44:50;;;;;;;26.17;19.42;;;18.20;99.90;;;;;;5115679;28;20420;-63
2023/05/23 04:47:17;;;;;;;23.50;19.98;;;18.20;99.90;;;;;;5115548;28;20403;-63
2023/05/23 04:49:45;;;;;;;30.30;21.40;;;18.30;99.90;;;;;;5114061;28;20449;-62
2023/05/23 04:52:12;;;;;;;24.43;18.17;;;18.30;99.90;;;;;;5114656;28;20431;-62
2023/05/23 04:54:43;;;;;;;27.23;21.80;;;18.40;99.90;;;;;;5113542;28;20424;-62
2023/05/23 04:57:11;;;;;;;30.07;21.80;;;18.40;99.90;;;;;;5112752;28;20428;-61
2023/05/23 04:59:38;;;;;;;27.67;21.65;;;18.20;99.90;;;;;;5113698;28;20431;-61
2023/05/23 05:02:06;;;;;;;24.23;19.30;;;18.10;99.90;;;;;;5113165;28;20474;-57
2023/05/23 05:04:33;;;;;;;24.02;19.23;;;18.30;99.90;;;;;;5113625;28;20728;-59
2023/05/23 05:07:03;;;;;;;23.98;20.52;;;18.30;99.90;;;;;;5115464;28;20481;-59
2023/05/23 05:09:30;;;;;;;24.35;20.10;;;18.40;99.90;;;;;;5114916;28;20431;-59
2023/05/23 05:11:58;;;;;;;25.60;20.45;;;18.50;99.90;;;;;;5115492;28;20458;-59
2023/05/23 05:14:26;;;;;;;26.42;20.60;;;18.50;99.90;;;;;;5113844;28;20424;-60
2023/05/23 05:16:56;;;;;;;26.13;20.45;;;18.50;99.90;;;;;;5112877;28;20919;-60
2023/05/23 05:19:23;;;;;;;26.88;20.35;;;18.60;99.90;;;;;;5114124;28;20434;-58
2023/05/23 05:21:50;;;;;;;23.70;19.93;;;18.50;99.90;;;;;;5114452;28;20419;-59
2023/05/23 05:24:19;;;;;;;22.95;19.30;;;18.50;99.90;;;;;;5114915;28;20420;-58
2023/05/23 05:26:47;;;;;;;22.27;18.67;;;18.50;99.90;;;;;;5113311;28;20464;-60
2023/05/23 05:29:16;;;;;;;26.77;21.27;;;18.50;99.90;;;;;;5113724;28;20431;-59
2023/05/23 05:31:44;;;;;;;23.33;20.60;;;18.50;99.90;;;;;;5112448;28;20798;-60
2023/05/23 05:34:11;;;;;;;24.27;20.52;;;18.40;99.90;;;;;;5112274;28;20416;-59
2023/05/23 05:36:44;;;;;;;25.83;20.40;;;18.40;99.90;;;;;;5111720;28;20416;-59
2023/05/23 05:39:12;;;;;;;26.00;20.50;;;18.40;99.90;;;;;;5112362;28;20519;-59
2023/05/23 05:41:39;;;;;;;24.45;19.95;;;18.20;99.90;;;;;;5114081;28;20416;-58
2023/05/23 05:44:06;;;;;;;22.92;18.90;;;18.20;99.90;;;;;;5112612;28;20806;-58
2023/05/23 05:46:34;;;;;;;22.48;18.98;;;18.40;99.90;;;;;;5114084;28;20458;-61
2023/05/23 05:49:01;;;;;;;29.65;20.73;;;18.40;99.90;;;;;;5111724;28;20431;-59
2023/05/23 05:51:30;;;;;;;25.77;21.35;;;18.50;99.90;;;;;;5113791;28;20469;-59
2023/05/23 05:53:57;;;;;;;22.15;19.65;;;18.40;99.90;;;;;;5114163;28;20473;-59
2023/05/23 05:56:25;;;;;;;25.70;22.00;;;18.40;99.90;;;;;;5112965;28;20412;-60
2023/05/23 05:58:52;;;;;;;26.23;19.88;;;18.50;99.90;;;;;;5114156;28;20447;-60
2023/05/23 06:01:19;;;;;;;24.33;19.58;;;18.50;99.90;;;;;;5111754;28;20577;-60
2023/05/23 06:03:47;;;;;;;24.30;19.70;;;18.60;99.90;;;;;;5112541;28;20416;-59
2023/05/23 06:06:14;;;;;;;24.27;19.45;;;18.70;99.90;;;;;;5113447;28;20463;-58
2023/05/23 06:08:42;;;;;;;25.67;21.75;;;18.90;99.90;;;;;;5112931;28;20428;-58
2023/05/23 06:11:09;;;;;;;21.87;19.57;;;18.80;99.90;;;;;;5112369;28;20827;-59
2023/05/23 06:13:36;;;;;;;25.45;21.55;;;18.80;99.90;;;;;;5112144;28;20463;-60
2023/05/23 06:16:03;;;;;;;25.90;21.80;;;18.80;99.90;;;;;;5113428;28;20473;-60
2023/05/23 06:18:30;;;;;;;25.48;22.00;;;18.70;99.90;;;;;;5112665;28;20424;-59
2023/05/23 06:20:58;;;;;;;28.38;22.10;;;18.60;99.90;;;;;;5111702;28;20432;-59
2023/05/23 06:23:25;;;;;;;25.65;21.63;;;18.60;99.90;;;;;;5111225;28;20427;-60
2023/05/23 06:25:52;;;;;;;25.55;21.67;;;18.70;99.90;;;;;;5111381;28;20416;-58
2023/05/23 06:28:19;;;;;;;24.15;20.38;;;18.70;99.90;;;;;;5113136;28;20416;-59
2023/05/23 06:30:46;;;;;;;26.60;21.37;;;18.80;99.90;;;;;;5114029;28;20835;-59
2023/05/23 06:33:13;;;;;;;22.00;19.67;;;19.00;99.90;;;;;;5113955;28;20432;-60
2023/05/23 06:35:40;;;;;;;20.10;17.58;;;19.00;99.90;;;;;;5114455;28;20431;-60
2023/05/23 06:38:09;;;;;;;21.58;18.02;;;19.20;99.90;;;;;;5112660;28;20455;-60
2023/05/23 06:40:36;;;;;;;21.45;18.25;;;19.20;99.90;;;;;;5109460;28;20489;-59
2023/05/23 06:43:02;;;;;;;24.02;19.67;;;19.20;99.90;;;;;;5111735;28;20416;-60
2023/05/23 06:45:30;;;;;;;25.53;21.83;;;19.10;99.90;;;;;;5113026;28;20416;-60
2023/05/23 06:47:58;;;;;;;29.70;21.30;;;19.00;99.90;;;;;;5110187;28;20851;-60
2023/05/23 06:50:25;;;;;;;22.10;18.73;;;18.80;99.90;;;;;;5108348;28;20516;-60
2023/05/23 06:52:52;;;;;;;23.08;20.58;;;18.80;99.90;;;;;;5109173;28;20420;-59
2023/05/23 06:55:21;;;;;;;24.13;19.97;;;18.60;99.90;;;;;;5112057;28;20404;-60
2023/05/23 06:57:50;;;;;;;22.83;18.33;;;18.40;99.90;;;;;;5111852;28;20922;-61
2023/05/23 07:00:18;;;;;;;20.95;17.80;;;18.50;99.90;;;;;;5111685;28;20847;-61
2023/05/23 07:02:47;;;;;;;22.17;18.27;;;18.50;99.90;;;;;;5109643;28;20458;-61
2023/05/23 07:05:14;;;;;;;21.98;19.05;;;18.70;99.90;;;;;;5111245;28;20434;-61
2023/05/23 07:07:41;;;;;;;19.90;17.80;;;18.70;99.90;;;;;;5109884;28;20835;-61
2023/05/23 07:10:09;;;;;;;19.17;17.02;;;18.60;99.90;;;;;;5112743;28;20500;-61
2023/05/23 07:12:38;;;;;;;21.45;18.15;;;18.50;99.90;;;;;;5111296;28;20424;-61
2023/05/23 07:15:06;;;;;;;21.63;17.65;;;18.40;99.90;;;;;;5109609;28;20424;-61
2023/05/23 07:17:32;;;;;;;20.70;17.60;;;18.40;99.90;;;;;;5110556;28;20416;-61
2023/05/23 07:19:59;;;;;;;19.35;16.95;;;18.40;99.90;;;;;;5109336;28;20481;-62
2023/05/23 07:22:27;;;;;;;21.33;17.48;;;18.40;99.90;;;;;;5111493;28;20416;-61
2023/05/23 07:24:54;;;;;;;16.90;15.10;;;18.30;99.90;;;;;;5111929;28;20424;-60
2023/05/23 07:27:21;;;;;;;17.13;14.30;;;18.20;99.90;;;;;;5112646;28;20413;-62
2023/05/23 07:29:52;;;;;;;17.35;14.95;;;18.30;99.90;;;;;;5112106;28;20490;-61
2023/05/23 07:32:19;;;;;;;16.92;15.23;;;18.30;99.90;;;;;;5111357;28;20408;-62
2023/05/23 07:34:46;;;;;;;17.35;15.10;;;18.20;99.90;;;;;;5111507;28;20797;-63
2023/05/23 07:37:13;;;;;;;16.40;14.02;;;18.20;99.90;;;;;;5112929;28;20416;-62
2023/05/23 07:39:41;;;;;;;17.48;15.32;;;18.40;99.90;;;;;;5112275;28;20424;-62
2023/05/23 07:42:08;;;;;;;18.25;15.00;;;18.30;99.90;;;;;;5113101;28;20469;-62
2023/05/23 07:44:35;;;;;;;17.95;16.05;;;18.10;99.90;;;;;;5113761;28;20477;-61
2023/05/23 07:47:04;;;;;;;21.27;16.73;;;18.00;99.90;;;;;;5112778;28;20416;-62
2023/05/23 07:49:31;;;;;;;20.17;17.70;;;18.00;99.90;;;;;;5112213;28;20424;-60
2023/05/23 07:51:58;;;;;;;20.52;16.80;;;17.90;99.90;;;;;;5109761;28;20478;-61
2023/05/23 07:54:25;;;;;;;17.55;15.65;;;17.80;99.90;;;;;;5107383;28;20428;-60
2023/05/23 07:56:53;;;;;;;16.80;15.00;;;17.90;99.90;;;;;;5110150;28;20420;-61
2023/05/23 07:59:21;;;;;;;16.10;14.40;;;18.10;99.90;;;;;;5105005;28;20438;-60
2023/05/23 08:01:49;;;;;;;16.95;13.88;;;18.20;99.90;;;;;;5107471;28;20424;-60
2023/05/23 08:04:17;;;;;;;15.10;13.52;;;18.10;99.90;;;;;;5097532;28;20538;-61
2023/05/23 08:06:46;;;;;;;14.82;12.32;;;18.20;99.90;;;;;;5109336;28;20424;-60
2023/05/23 08:09:13;;;;;;;13.40;11.98;;;18.10;99.90;;;;;;5112552;28;20440;-60
2023/05/23 08:11:40;;;;;;;13.50;11.43;;;18.20;99.90;;;;;;5113957;28;20423;-59
2023/05/23 08:14:07;;;;;;;13.32;11.90;;;18.40;99.90;;;;;;5112767;28;20716;-60
2023/05/23 08:16:35;;;;;;;14.38;12.88;;;18.40;99.90;;;;;;5114286;28;20420;-61
2023/05/23 08:19:02;;;;;;;12.60;11.07;;;18.50;99.90;;;;;;5112630;28;20435;-60
2023/05/23 08:21:31;;;;;;;12.33;10.87;;;18.50;99.90;;;;;;5111461;28;20424;-60
2023/05/23 08:23:58;;;;;;;12.30;11.00;;;18.50;99.90;;;;;;5110425;28;20424;-59
2023/05/23 08:26:26;;;;;;;12.25;10.75;;;18.50;99.90;;;;;;5103485;28;21048;-60
2023/05/23 08:28:53;;;;;;;11.13;10.03;;;18.50;99.90;;;;;;5111799;28;20519;-58
2023/05/23 08:31:20;;;;;;;13.95;12.45;;;18.20;99.90;;;;;;5112206;28;20420;-60
2023/05/23 08:33:47;;;;;;;15.00;12.38;;;18.00;99.90;;;;;;5094620;28;20730;-60
2023/05/23 08:36:14;;;;;;;12.20;10.90;;;17.90;99.90;;;;;;5094238;28;20418;-59
2023/05/23 08:38:43;;;;;;;11.73;10.27;;;18.00;99.90;;;;;;5090617;28;20426;-60
2023/05/23 08:41:18;;;;;;;12.50;10.02;;;18.00;99.90;;;;;;5090411;28;20845;-60
2023/05/23 08:43:45;;;;;;;10.82;9.65;;;17.60;99.90;;;;;;5094352;28;20781;-60
2023/05/23 08:46:12;;;;;;;11.85;10.20;;;17.50;99.90;;;;;;5094557;28;20522;-61
2023/05/23 08:48:40;;;;;;;10.75;9.10;;;17.50;99.90;;;;;;5094549;28;20426;-59
2023/05/23 08:51:09;;;;;;;10.95;9.73;;;17.50;99.90;;;;;;5090941;28;20810;-60
2023/05/23 08:53:38;;;;;;;9.82;8.82;;;17.50;99.90;;;;;;5093127;28;20773;-59
2023/05/23 08:56:08;;;;;;;9.95;8.60;;;17.60;99.90;;;;;;5092306;28;20841;-59
2023/05/23 08:58:37;;;;;;;10.63;9.30;;;17.70;99.90;;;;;;5089872;28;20482;-60
2023/05/23 09:01:04;;;;;;;10.50;9.40;;;17.80;99.90;;;;;;5091620;28;20491;-59
2023/05/23 09:03:32;;;;;;;12.73;9.73;;;17.70;99.90;;;;;;5091784;28;20417;-58
2023/05/23 09:05:59;;;;;;;11.18;9.80;;;17.80;99.90;;;;;;5092489;28;20433;-59
2023/05/23 09:08:26;;;;;;;12.80;10.98;;;17.90;99.90;;;;;;5094251;28;20429;-61
2023/05/23 09:10:55;;;;;;;10.82;9.68;;;17.70;99.90;;;;;;5093086;28;20516;-63
2023/05/23 09:13:24;;;;;;;11.40;9.93;;;17.80;99.90;;;;;;5093558;28;20469;-63
2023/05/23 09:16:01;;;;;;;11.07;9.52;;;18.00;99.90;;;;;;5090193;28;20414;-63
2023/05/23 09:18:35;;;;;;;9.20;8.20;;;18.00;99.90;;;;;;5091193;28;20846;-63
2023/05/23 09:21:03;;;;;;;9.93;9.02;;;18.20;99.90;;;;;;5090476;28;20421;-63
2023/05/23 09:23:31;;;;;;;9.73;8.82;;;18.20;99.90;;;;;;5093210;28;20482;-63
2023/05/23 09:26:02;;;;;;;8.68;7.82;;;18.20;99.90;;;;;;5093777;28;20849;-63
2023/05/23 09:28:31;;;;;;;8.70;7.80;;;18.30;99.90;;;;;;5092975;28;20519;-64
2023/05/23 09:30:59;;;;;;;11.00;8.95;;;18.10;99.90;;;;;;5090844;28;20490;-64
2023/05/23 09:33:34;;;;;;;8.90;8.07;;;17.90;99.90;;;;;;5090326;28;20430;-65
2023/05/23 09:36:03;;;;;;;8.93;7.70;;;17.70;99.90;;;;;;5090589;28;20424;-65
2023/05/23 09:38:30;;;;;;;8.80;7.80;;;17.60;99.90;;;;;;5091018;28;20471;-63
2023/05/23 09:40:59;;;;;;;6.82;6.13;;;17.80;99.90;;;;;;5090347;28;20491;-64
2023/05/23 09:43:26;;;;;;;7.85;6.85;;;17.90;99.90;;;;;;5091301;28;20491;-63
2023/05/23 09:45:56;;;;;;;7.60;6.63;;;18.10;99.90;;;;;;5090680;28;20422;-63
2023/05/23 09:48:29;;;;;;;7.72;6.75;;;18.10;99.90;;;;;;5099102;28;20432;-64
2023/05/23 09:50:56;;;;;;;8.98;6.68;;;18.20;99.90;;;;;;5110427;28;20411;-64
2023/05/23 09:53:23;;;;;;;6.97;6.28;;;18.20;99.90;;;;;;5108746;28;20427;-65
2023/05/23 09:55:52;;;;;;;5.88;5.38;;;18.30;99.90;;;;;;5110303;28;20774;-64
2023/05/23 09:58:22;;;;;;;6.70;6.10;;;18.50;99.90;;;;;;5111227;28;20850;-64
2023/05/23 10:00:51;;;;;;;6.03;5.43;;;18.50;99.90;;;;;;5111154;28;20424;-64
2023/05/23 10:03:24;;;;;;;6.43;5.40;;;18.60;99.90;;;;;;5111082;28;20617;-64
2023/05/23 10:05:56;;;;;;;5.82;5.32;;;18.60;99.90;;;;;;5110107;28;20436;-65
2023/05/23 10:08:30;;;;;;;6.43;5.50;;;18.60;99.90;;;;;;5110292;28;20505;-64
2023/05/23 10:11:33;;;;;;;5.80;5.30;;;18.90;99.90;;;;;;5106431;28;20424;-63
2023/05/23 10:14:03;;;;;;;5.30;4.80;;;19.10;99.90;;;;;;5098149;28;20432;-62
2023/05/23 10:16:38;;;;;;;5.03;4.53;;;19.40;99.90;;;;;;5112267;28;20853;-64
2023/05/23 10:19:15;;;;;;;5.20;3.95;;;19.50;99.90;;;;;;5112756;28;20792;-63
2023/05/23 10:21:50;;;;;;;5.47;4.53;;;19.70;99.90;;;;;;5113492;28;20432;-62
2023/05/23 10:24:17;;;;;;;4.68;4.28;;;19.40;99.90;;;;;;5110282;28;20523;-62
2023/05/23 10:26:45;;;;;;;4.80;4.35;;;19.90;99.90;;;;;;5109698;28;20416;-64
2023/05/23 10:29:12;;;;;;;4.82;3.80;;;20.40;99.90;;;;;;5111756;28;20424;-63
2023/05/23 10:31:40;;;;;;;4.13;3.22;;;21.00;99.90;;;;;;5109825;28;20404;-63
2023/05/23 10:34:20;;;;;;;3.47;3.17;;;21.40;99.90;;;;;;5111357;28;20416;-65
2023/05/23 10:36:57;;;;;;;3.65;2.75;;;21.70;99.90;;;;;;5109743;28;20408;-63
2023/05/23 10:39:34;;;;;;;3.97;3.10;;;21.60;99.90;;;;;;5109199;28;20798;-64
2023/05/23 10:42:07;;;;;;;3.30;3.00;;;21.40;99.90;;;;;;5108464;28;20420;-64
2023/05/23 10:44:34;;;;;;;3.70;3.40;;;20.90;99.90;;;;;;5109117;28;20436;-64
2023/05/23 10:47:03;;;;;;;4.32;3.33;;;20.70;99.90;;;;;;5109186;28;20436;-64
2023/05/23 10:49:41;;;;;;;3.45;3.13;;;20.60;99.90;;;;;;5109300;28;20471;-64
2023/05/23 10:52:09;;;;;;;3.30;2.97;;;20.10;99.90;;;;;;5110215;28;20412;-64
2023/05/23 10:54:37;;;;;;;4.00;3.58;;;20.10;99.90;;;;;;5108492;28;20424;-65
2023/05/23 10:57:05;;;;;;;3.45;3.15;;;20.20;99.90;;;;;;5104630;28;20514;-65
2023/05/23 10:59:32;;;;;;;3.78;3.22;;;20.50;99.90;;;;;;5112416;28;20544;-63
2023/05/23 11:02:01;;;;;;;3.90;3.60;;;20.70;99.90;;;;;;5107181;28;20512;-65
2023/05/23 11:04:29;;;;;;;3.80;3.50;;;20.60;99.90;;;;;;5105671;28;20540;-64
2023/05/23 11:06:58;;;;;;;4.47;2.95;;;20.40;99.90;;;;;;5108380;28;20693;-64
2023/05/23 11:09:25;;;;;;;3.35;3.05;;;20.40;99.90;;;;;;5108134;28;20958;-64
2023/05/23 11:11:57;;;;;;;2.73;2.50;;;20.30;99.90;;;;;;5109079;28;20417;-63
2023/05/23 11:14:51;;;;;;;3.40;3.10;;;20.40;99.90;;;;;;5108276;28;20420;-64
2023/05/23 11:17:29;;;;;;;4.00;2.80;;;20.70;99.90;;;;;;5110788;28;20735;-64
2023/05/23 11:19:58;;;;;;;3.45;3.15;;;21.00;99.90;;;;;;5112438;28;20545;-64
2023/05/23 11:22:29;;;;;;;2.80;2.20;;;21.10;99.90;;;;;;5112999;28;20430;-64
2023/05/23 11:24:58;;;;;;;2.65;1.88;;;21.10;99.90;;;;;;5098932;28;20591;-65
2023/05/23 11:27:29;;;;;;;2.10;1.70;;;20.90;99.90;;;;;;5087919;28;20482;-65
2023/05/23 11:30:00;;;;;;;2.25;1.92;;;20.90;99.90;;;;;;5087057;28;20429;-64
2023/05/23 11:32:31;;;;;;;2.60;2.20;;;21.00;99.90;;;;;;5089099;28;20414;-68
2023/05/23 11:35:01;;;;;;;2.90;2.50;;;21.00;99.90;;;;;;5091755;28;20429;-68
2023/05/23 11:37:30;;;;;;;2.45;2.22;;;20.90;99.90;;;;;;5090626;28;20414;-69
2023/05/23 11:39:58;;;;;;;3.97;3.08;;;20.90;99.90;;;;;;5092820;28;20427;-69
2023/05/23 11:42:25;;;;;;;3.20;2.95;;;20.80;99.90;;;;;;5090965;28;20434;-68
2023/05/23 11:44:52;;;;;;;3.10;2.80;;;20.50;99.90;;;;;;5093604;28;20566;-68
2023/05/23 11:47:20;;;;;;;3.67;3.38;;;20.60;99.90;;;;;;5093728;28;20428;-67
2023/05/23 11:49:48;;;;;;;4.40;2.97;;;20.60;99.90;;;;;;5093682;28;20426;-67
2023/05/23 11:52:15;;;;;;;3.03;2.83;;;20.70;99.90;;;;;;5093826;28;20821;-67
2023/05/23 11:54:44;;;;;;;3.80;3.50;;;20.80;99.90;;;;;;5094637;28;20429;-67
2023/05/23 11:57:13;;;;;;;3.53;3.00;;;21.00;99.90;;;;;;5092676;28;20829;-66
2023/05/23 11:59:41;;;;;;;4.20;3.90;;;21.00;99.90;;;;;;5093281;28;20426;-63
2023/05/23 12:02:08;;;;;;;2.80;2.50;;;21.00;99.90;;;;;;5093807;28;20493;-64
2023/05/23 12:04:36;;;;;;;4.45;3.40;;;20.50;99.90;;;;;;5093869;28;20482;-64
2023/05/23 12:07:06;;;;;;;2.90;2.37;;;20.30;99.90;;;;;;5094093;28;20453;-62
2023/05/23 12:09:41;;;;;;;3.10;2.63;;;20.70;99.90;;;;;;5093980;28;20724;-63
2023/05/23 12:12:09;;;;;;;3.58;3.28;;;20.90;99.90;;;;;;5093410;28;20414;-64
2023/05/23 12:14:43;;;;;;;2.70;2.45;;;20.70;99.90;;;;;;5094049;28;20437;-64
2023/05/23 12:17:11;;;;;;;3.40;2.30;;;20.60;99.90;;;;;;5092423;28;20506;-63
2023/05/23 12:19:38;;;;;;;2.80;1.70;;;20.80;99.90;;;;;;5094531;28;20426;-64
2023/05/23 12:22:07;;;;;;;2.75;2.53;;;20.80;99.90;;;;;;5093584;28;20488;-64
2023/05/23 12:24:34;;;;;;;2.40;1.77;;;20.80;99.90;;;;;;5091777;28;21031;-64
2023/05/23 12:27:03;;;;;;;3.13;2.20;;;21.30;99.90;;;;;;5091040;28;20414;-65
2023/05/23 12:29:33;;;;;;;2.10;1.93;;;22.00;99.90;;;;;;5100352;28;20427;-65
2023/05/23 12:32:02;;;;;;;3.10;1.90;;;22.70;99.90;;;;;;5112889;28;20412;-64
2023/05/23 12:34:29;;;;;;;2.83;2.00;;;23.20;99.90;;;;;;5112770;28;20796;-63
2023/05/23 12:36:57;;;;;;;1.70;1.60;;;23.10;99.90;;;;;;5111470;28;20422;-62
2023/05/23 12:39:26;;;;;;;2.30;1.50;;;22.80;99.90;;;;;;5093553;28;20849;-64